Moscow, AR (71659)

6:30 AM CDT on July 11, 2014 (GMT -0500)
Grider (KPBF) Elev 207 ft | 34.17 °N, 91.93 °W | Change Station

Current weather conditions updated 8 minutes ago

Mist
Mist
72 °F
Feels Like 72 °F
N
0
Wind Variable Wind from North

Today is forecast to be Warmer than yesterday. Slight chance of a thunderstorm.

Today
High -- | Low -- °F
--% Chance of Precip.
Yesterday
High -- | Low -- °F
Precip. -- in
6:04 AM 8:20 PM
Waxing Gibbous, 99% visible
Pressure 30.11 in
Visibility 0.8 miles
Clouds
Dew Point 72 °F
Humidity 100%
Rainfall 0.00 in
Snow Depth Not available.
UV Not available.
Pollen 3.40 out of 12
Air Quality Not available.
Flu Activity No Activity
SPECI KPBF 111122Z AUTO 00000KT 3/4SM BR VV001 22/22 A3011 RMK AO2

More Conditions Fewer Conditions

Pressure 30.11 in
Visibility 0.8 miles
Clouds
Dew Point 72 °F
Humidity 100%
Rainfall 0.00 in
Snow Depth Not available.
UV Not available.
Pollen 3.40 out of 12
Air Quality Not available.
Flu Activity No Activity
SPECI KPBF 111122Z AUTO 00000KT 3/4SM BR VV001 22/22 A3011 RMK AO2

More Conditions Fewer Conditions

10-Day Weather Forecast

Almanac

Astronomy

Jul. 11, 2014 Rise Set
Actual Time 6:04 AM CDT 8:20 PM CDT
Civil Twilight 5:35 AM CDT 8:49 PM CDT
Nautical Twilight 5:00 AM CDT 9:24 PM CDT
Astronomical Twilight 4:21 AM CDT 10:03 PM CDT
Moon 7:34 PM CDT 5:14 AM CDT
Length of Visible Light 15h 14m
Length of Day
14h 16m
Tomorrow will be 0m 57s shorter.
Waxing Gibbous, 99% of the Moon is Illuminated
Today
Waxing Gibbous
Jul 12
Full
Jul 18
Last Quarter
Jul 26
New
Aug 3
First Quarter

Today's Extremes

State Highs State Lows

Community

WunderPhotos

Upload Photos

1,732,425 photos uploaded!

WunderBlogs® & News

Nearby

Snow Depth

Station Depth Elevation
No new snow has been reported.

Earthquake Activity

City Distance Mag. Time & Date
No recent earthquake activity has been reported nearby.
Minimum magnitude displayed is 2.5.

Coastal Water Temperatures

Place Temperature
No Stations Reporting

Nearby Weather Stations

Station Location Temp. Heat Index Dew Point Humidity Wind Precip. Elev Updated Type
MesoWest MOSCOW , Moscow, AR 71 °F - - - North  at  - 0.00 in / hr 209 ft 5:00 AM CDT MADIS
MesoWest GRADY , Grady, AR 69 °F - - - North  at  - 0.00 in / hr 191 ft 5:15 AM CDT MADIS
Pine Bluff - Deerfield, Pine Bluff, AR 71.5 °F - 71 °F 99% SSE  at  0.0 mph 0.00 in / hr 228 ft 6:30 AM CDT Rapid Fire
MesoWest UAPB CAMPUS-PB , Pine Bluff, AR 71 °F - 71 °F 100% West  at  1 mph 0.00 in / hr 231 ft 5:00 AM CDT MADIS
MesoWest VIKING , White Hall, AR 73 °F 71 °F - - North  at  - 0.00 in / hr 229 ft 4:50 AM CDT MADIS
MesoWest GOULD , Gould, AR 72 °F - - - North  at  - 0.00 in / hr 170 ft 4:20 AM CDT MADIS
MesoWest STGRTS , Stuttgart, AR 71 °F - - - North  at  - 0.00 in / hr 203 ft 4:35 AM CDT MADIS

Show More Stations Show Fewer Stations